createdAt,value
2023-04-15T00:00:39.324Z,167.0833
2023-04-15T00:01:43.276Z,168.2500
2023-04-15T00:02:47.318Z,166.8333
2023-04-15T00:03:51.460Z,168.3333
2023-04-15T00:04:55.711Z,169.0833
2023-04-15T00:05:59.577Z,168.2500
2023-04-15T00:07:03.699Z,169.5000
2023-04-15T00:08:07.584Z,169.8333
2023-04-15T00:09:11.469Z,169.3333
2023-04-15T00:10:15.365Z,170.5833
2023-04-15T00:11:19.269Z,169.0833
2023-04-15T00:12:23.155Z,170.1667
2023-04-15T00:13:27.055Z,171.0000
2023-04-15T00:14:31.170Z,170.8333
2023-04-15T00:15:35.064Z,169.8333
2023-04-15T00:16:39.072Z,172.0000
2023-04-15T00:17:43.015Z,172.7500
2023-04-15T00:18:46.914Z,170.7500
2023-04-15T00:19:50.783Z,170.5833
2023-04-15T00:20:54.692Z,171.8333
2023-04-15T00:21:58.816Z,172.2500
2023-04-15T00:23:02.684Z,173.3333
2023-04-15T00:24:06.557Z,172.9167
2023-04-15T00:25:10.479Z,173.5833
2023-04-15T00:26:14.377Z,172.5833
2023-04-15T00:27:18.255Z,175.3333
2023-04-15T00:28:22.141Z,174.2500
2023-04-15T00:29:26.051Z,172.5000
2023-04-15T00:30:29.959Z,171.5000
2023-04-15T00:31:33.972Z,173.4167
2023-04-15T00:32:37.926Z,174.0833
2023-04-15T00:33:41.783Z,174.0833
2023-04-15T00:34:45.924Z,174.8333
2023-04-15T00:35:49.805Z,175.4167
2023-04-15T00:36:53.933Z,174.5000
2023-04-15T00:37:57.809Z,174.4167
2023-04-15T00:39:01.843Z,175.5000
2023-04-15T00:40:05.821Z,175.8333
2023-04-15T00:41:09.705Z,174.4167
2023-04-15T00:42:13.605Z,175.5000
2023-04-15T00:43:17.487Z,174.2500
2023-04-15T00:44:21.608Z,175.1667
2023-04-15T00:45:25.470Z,176.6667
2023-04-15T00:46:29.381Z,177.3333
2023-04-15T00:47:33.276Z,178.1667
2023-04-15T00:48:37.167Z,177.2500
2023-04-15T00:49:41.044Z,176.5000
2023-04-15T00:50:44.968Z,176.1667
2023-04-15T00:51:48.839Z,180.5000
2023-04-15T00:52:52.753Z,176.9167
2023-04-15T00:53:56.627Z,177.7500
2023-04-15T00:55:00.775Z,178.0000
2023-04-15T00:56:04.681Z,177.9167
2023-04-15T00:57:08.561Z,177.5833
2023-04-15T00:58:12.464Z,180.5833
2023-04-15T00:59:16.342Z,180.7500
2023-04-15T01:00:20.250Z,178.9167
2023-04-15T01:01:24.466Z,178.9167
2023-04-15T01:02:28.519Z,179.6667
2023-04-15T01:03:32.652Z,180.3333
2023-04-15T01:04:36.848Z,180.0833
2023-04-15T01:05:40.758Z,180.8333
2023-04-15T01:06:41.199Z,180.8182
2023-04-15T01:07:45.073Z,181.6667
2023-04-15T01:08:48.956Z,181.6667
2023-04-15T01:09:52.841Z,180.9167
2023-04-15T01:10:56.736Z,180.5833
2023-04-15T01:12:00.624Z,179.9167
2023-04-15T01:13:04.535Z,182.4167
2023-04-15T01:14:08.418Z,182.4167
2023-04-15T01:15:12.333Z,183.4167
2023-04-15T01:16:16.269Z,180.9167
2023-04-15T01:17:20.191Z,182.1667
2023-04-15T01:18:24.052Z,181.9167
2023-04-15T01:19:27.952Z,184.1667
2023-04-15T01:20:31.833Z,182.5000
2023-04-15T01:21:35.979Z,181.7500
2023-04-15T01:22:39.867Z,182.5833
2023-04-15T01:23:43.759Z,182.9167
2023-04-15T01:24:47.649Z,182.8333
2023-04-15T01:25:51.543Z,183.1667
2023-04-15T01:26:55.447Z,183.3333
2023-04-15T01:27:59.337Z,183.9167
2023-04-15T01:29:03.241Z,182.0833
2023-04-15T01:30:07.116Z,184.5000
2023-04-15T01:31:11.089Z,182.7500
2023-04-15T01:32:15.007Z,183.5000
2023-04-15T01:33:18.889Z,183.9167
2023-04-15T01:34:22.783Z,185.0833
2023-04-15T01:35:26.664Z,185.0000
2023-04-15T01:36:30.573Z,184.0000
2023-04-15T01:37:34.697Z,185.5833
2023-04-15T01:38:38.587Z,185.4167
2023-04-15T01:39:42.478Z,185.4167
2023-04-15T01:40:46.382Z,184.0833
2023-04-15T01:41:50.491Z,186.9167
2023-04-15T01:42:54.401Z,184.3333
2023-04-15T01:43:58.278Z,185.0833
2023-04-15T01:45:02.200Z,186.6667
2023-04-15T01:46:06.070Z,186.3333
2023-04-15T01:47:10.191Z,185.5833
2023-04-15T01:48:14.092Z,187.2500
2023-04-15T01:49:17.985Z,186.5000
2023-04-15T01:50:21.888Z,187.5833
2023-04-15T01:51:25.761Z,187.4167
2023-04-15T01:52:29.903Z,187.4167
2023-04-15T01:53:33.786Z,188.2500
2023-04-15T01:54:37.714Z,189.9167
2023-04-15T01:55:41.589Z,188.5833
2023-04-15T01:56:41.927Z,186.1818
2023-04-15T01:57:45.818Z,189.3333
2023-04-15T01:58:49.726Z,190.8333
2023-04-15T01:59:53.612Z,189.5833
2023-04-15T02:00:57.586Z,187.8333
2023-04-15T02:02:01.462Z,190.4167
2023-04-15T02:03:05.577Z,191.9167
2023-04-15T02:04:05.822Z,192.2727
2023-04-15T02:06:14.427Z,190.9167
2023-04-15T02:07:18.590Z,189.5000
2023-04-15T02:08:23.007Z,188.5000
2023-04-15T02:09:26.912Z,190.3333
2023-04-15T02:10:31.687Z,191.3636
2023-04-15T02:11:35.568Z,189.2500
2023-04-15T02:12:39.454Z,194.5000
2023-04-15T02:13:43.373Z,192.1667
2023-04-15T02:14:47.262Z,190.9167
2023-04-15T02:15:51.150Z,189.7500
2023-04-15T02:16:55.287Z,192.3333
2023-04-15T02:17:59.204Z,193.9167
2023-04-15T02:19:03.399Z,192.8333
2023-04-15T02:20:07.247Z,190.9167
2023-04-15T02:21:11.110Z,189.1667
2023-04-15T02:22:14.993Z,192.0833
2023-04-15T02:23:18.891Z,191.4167
2023-04-15T02:24:22.807Z,191.7500
2023-04-15T02:25:26.689Z,190.6667
2023-04-15T02:26:30.600Z,194.2500
2023-04-15T02:27:34.508Z,191.5000
2023-04-15T02:28:38.421Z,193.7500
2023-04-15T02:29:42.303Z,195.2500
2023-04-15T02:30:46.189Z,194.2500
2023-04-15T02:31:50.125Z,192.1667
2023-04-15T02:32:54.058Z,194.0000
2023-04-15T02:33:57.948Z,192.1667
2023-04-15T02:35:01.854Z,193.3333
2023-04-15T02:36:05.736Z,193.5833
2023-04-15T02:37:06.147Z,194.8182
2023-04-15T02:38:10.031Z,196.8333
2023-04-15T02:39:13.917Z,197.0833
2023-04-15T02:40:17.805Z,195.0833
2023-04-15T02:41:21.705Z,196.9167
2023-04-15T02:42:25.614Z,195.8333
2023-04-15T02:43:29.501Z,196.0000
2023-04-15T02:44:33.627Z,199.4167
2023-04-15T02:45:37.563Z,196.3333
2023-04-15T02:46:41.691Z,197.8333
2023-04-15T02:47:45.590Z,195.0833
2023-04-15T02:48:49.463Z,196.2500
2023-04-15T02:49:53.350Z,196.6667
2023-04-15T02:50:57.230Z,194.4167
2023-04-15T02:52:01.149Z,197.5833
2023-04-15T02:53:05.026Z,196.3333
2023-04-15T02:54:08.929Z,195.5000
2023-04-15T02:55:12.866Z,194.3333
2023-04-15T02:56:16.713Z,196.5833
2023-04-15T02:57:20.621Z,194.0833
2023-04-15T02:58:24.507Z,198.4167
2023-04-15T02:59:28.735Z,195.8333
2023-04-15T03:00:32.636Z,198.0000
2023-04-15T03:01:36.796Z,199.5833
2023-04-15T03:02:40.737Z,197.1667
2023-04-15T03:03:44.742Z,200.8333
2023-04-15T03:04:48.710Z,198.2500
2023-04-15T03:05:52.618Z,197.9167
2023-04-15T03:06:56.478Z,197.2500
2023-04-15T03:08:00.379Z,197.5833
2023-04-15T03:09:04.278Z,196.1667
2023-04-15T03:10:08.156Z,196.9167
2023-04-15T03:11:12.062Z,200.8333
2023-04-15T03:12:15.945Z,201.8333
2023-04-15T03:13:19.846Z,200.5000
2023-04-15T03:14:23.716Z,201.5000
2023-04-15T03:15:27.668Z,196.9167
2023-04-15T03:16:31.535Z,196.8333
2023-04-15T03:17:35.453Z,198.3333
2023-04-15T03:18:39.319Z,196.5000
2023-04-15T03:19:43.232Z,195.3333
2023-04-15T03:20:47.184Z,195.6667
2023-04-15T03:21:51.030Z,195.1667
2023-04-15T03:22:54.921Z,196.3333
2023-04-15T03:23:58.815Z,196.7500
2023-04-15T03:25:02.710Z,198.0833
2023-04-15T03:26:06.810Z,198.3333
2023-04-15T03:27:10.710Z,198.6667
2023-04-15T03:28:14.614Z,197.0000
2023-04-15T03:29:14.979Z,199.0909
2023-04-15T03:30:18.875Z,199.0000
2023-04-15T03:31:23.062Z,198.0000
2023-04-15T03:32:27.005Z,197.4167
2023-04-15T03:33:30.842Z,200.7500
2023-04-15T03:34:34.948Z,200.0000
2023-04-15T03:35:38.836Z,199.3333
2023-04-15T03:36:42.723Z,198.7500
2023-04-15T03:37:46.597Z,197.5000
2023-04-15T03:38:50.522Z,199.0000
2023-04-15T03:39:54.400Z,199.0833
2023-04-15T03:40:58.274Z,198.9167
2023-04-15T03:42:02.337Z,200.5833
2023-04-15T03:43:06.225Z,201.1667
2023-04-15T03:44:10.498Z,200.7500
2023-04-15T03:45:14.403Z,199.3333
2023-04-15T03:46:18.330Z,200.0000
2023-04-15T03:47:22.223Z,200.1667
2023-04-15T03:48:26.087Z,202.5000
2023-04-15T03:49:30.282Z,200.8333
2023-04-15T03:50:34.170Z,200.7500
2023-04-15T03:51:38.043Z,200.2500
2023-04-15T03:52:41.958Z,200.0000
2023-04-15T03:53:45.860Z,200.5833
2023-04-15T03:54:49.749Z,201.1667
2023-04-15T03:55:53.644Z,202.0833
2023-04-15T03:56:57.528Z,200.2500
2023-04-15T03:58:01.431Z,202.3333
2023-04-15T03:59:05.336Z,202.0833
2023-04-15T04:00:09.240Z,201.9167
2023-04-15T04:01:13.144Z,205.0833
2023-04-15T04:02:17.121Z,204.4167
2023-04-15T04:03:21.235Z,202.2500
2023-04-15T04:04:25.406Z,203.3333
2023-04-15T04:05:29.280Z,202.2500
2023-04-15T04:06:33.189Z,203.5833
2023-04-15T04:07:37.065Z,202.4167
2023-04-15T04:08:40.937Z,204.9167
2023-04-15T04:09:46.630Z,204.0000
2023-04-15T04:10:45.768Z,205.2727
2023-04-15T04:11:50.412Z,204.0833
2023-04-15T04:12:54.306Z,203.2500
2023-04-15T04:13:58.187Z,201.4167
2023-04-15T04:15:02.082Z,203.5000
2023-04-15T04:16:02.301Z,198.1818
2023-04-15T04:17:06.368Z,196.0000
2023-04-15T04:18:10.289Z,191.2500
2023-04-15T04:19:14.387Z,185.9167
2023-04-15T04:20:18.260Z,185.0000
2023-04-15T04:21:22.154Z,181.0000
2023-04-15T04:22:26.039Z,167.0000
2023-04-15T04:23:29.948Z,162.0000
2023-04-15T04:24:34.053Z,154.9167
2023-04-15T04:25:37.955Z,154.9167
2023-04-15T04:26:42.055Z,155.5833
2023-04-15T04:27:45.996Z,154.5000
2023-04-15T04:28:49.870Z,155.5833
2023-04-15T04:29:53.769Z,154.7500
2023-04-15T04:30:57.659Z,153.5833
2023-04-15T04:32:01.611Z,154.0000
2023-04-15T04:33:05.583Z,151.4167
2023-04-15T04:34:09.706Z,148.0833
2023-04-15T04:35:13.596Z,147.2500
2023-04-15T04:36:17.463Z,145.1667
2023-04-15T04:37:21.362Z,143.0833
2023-04-15T04:38:25.277Z,142.4167
2023-04-15T04:39:29.373Z,139.3333
2023-04-15T04:40:33.264Z,142.2500
2023-04-15T04:41:37.131Z,141.8333
2023-04-15T04:42:41.082Z,140.7500
2023-04-15T04:43:45.189Z,140.5833
2023-04-15T04:44:49.058Z,139.0833
2023-04-15T04:45:52.969Z,137.5833
2023-04-15T04:46:57.050Z,139.0000
2023-04-15T04:48:01.042Z,135.0833
2023-04-15T04:49:05.084Z,134.9167
2023-04-15T04:50:09.001Z,135.0000
2023-04-15T04:51:12.881Z,132.4167
2023-04-15T04:52:16.783Z,134.1667
2023-04-15T04:53:20.670Z,132.5833
2023-04-15T04:54:24.584Z,131.9167
2023-04-15T04:55:28.474Z,129.4167
2023-04-15T04:56:32.358Z,130.9167
2023-04-15T04:57:36.257Z,131.9167
2023-04-15T04:58:36.628Z,128.5455
2023-04-15T04:59:40.529Z,129.8333
2023-04-15T05:00:44.422Z,127.5000
2023-04-15T05:01:48.431Z,125.3333
2023-04-15T05:02:52.609Z,124.6667
2023-04-15T05:03:56.656Z,122.6667
2023-04-15T05:05:00.641Z,122.0833
2023-04-15T05:06:04.521Z,124.0000
2023-04-15T05:07:08.457Z,121.0833
2023-04-15T05:08:12.348Z,120.5000
2023-04-15T05:09:16.428Z,120.0833
2023-04-15T05:10:20.327Z,120.1667
2023-04-15T05:11:24.220Z,121.4167
2023-04-15T05:12:28.101Z,124.1667
2023-04-15T05:13:31.977Z,126.2500
2023-04-15T05:14:35.886Z,128.0000
2023-04-15T05:15:39.879Z,128.4167
2023-04-15T05:16:43.787Z,129.1667
2023-04-15T05:17:47.750Z,132.0000
2023-04-15T05:18:51.611Z,132.1667
2023-04-15T05:19:55.522Z,132.5000
2023-04-15T05:20:59.427Z,131.9167
2023-04-15T05:22:03.306Z,131.0833
2023-04-15T05:23:07.183Z,134.4167
2023-04-15T05:24:11.077Z,137.0000
2023-04-15T05:25:14.988Z,139.8333
2023-04-15T05:26:19.146Z,138.7500
2023-04-15T05:27:23.045Z,140.0833
2023-04-15T05:28:27.183Z,138.6667
2023-04-15T05:29:31.073Z,139.2500
2023-04-15T05:30:34.975Z,135.6667
2023-04-15T05:31:38.896Z,139.0833
2023-04-15T05:32:42.777Z,141.0833
2023-04-15T05:33:46.659Z,144.3333
2023-04-15T05:34:50.559Z,146.0000
2023-04-15T05:35:54.450Z,148.8333
2023-04-15T05:36:58.363Z,147.5833
2023-04-15T05:38:02.243Z,150.1667
2023-04-15T05:39:06.155Z,150.1667
2023-04-15T05:40:10.048Z,149.5833
2023-04-15T05:41:13.913Z,150.6667
2023-04-15T05:42:17.841Z,147.1667
2023-04-15T05:43:23.268Z,146.2500
2023-04-15T05:44:27.174Z,147.8333
2023-04-15T05:45:31.058Z,148.5000
2023-04-15T05:46:35.233Z,150.4167
2023-04-15T05:47:39.154Z,151.3333
2023-04-15T05:48:43.024Z,150.9167
2023-04-15T05:49:46.916Z,150.2500
2023-04-15T05:50:50.823Z,150.1667
2023-04-15T05:51:54.736Z,149.6667
2023-04-15T05:52:58.642Z,150.3333
2023-04-15T05:54:02.747Z,150.7500
2023-04-15T05:55:06.621Z,151.4167
2023-04-15T05:56:10.754Z,149.5833
2023-04-15T05:57:14.638Z,150.2500
2023-04-15T05:58:18.532Z,150.8333
2023-04-15T05:59:22.412Z,150.4167
2023-04-15T06:00:26.293Z,151.1667
2023-04-15T06:01:30.190Z,150.8333
2023-04-15T06:02:34.126Z,151.4167
2023-04-15T06:03:38.181Z,154.2500
2023-04-15T06:04:42.116Z,154.4167
2023-04-15T06:05:45.999Z,155.6667
2023-04-15T06:06:49.910Z,156.4167
2023-04-15T06:07:53.817Z,156.2500
2023-04-15T06:08:57.720Z,156.9167
2023-04-15T06:10:01.648Z,157.2500
2023-04-15T06:11:05.755Z,160.5000
2023-04-15T06:12:09.641Z,158.0833
2023-04-15T06:13:13.858Z,158.7500
2023-04-15T06:14:17.742Z,155.5833
2023-04-15T06:15:21.641Z,152.8333
2023-04-15T06:16:25.576Z,153.0000
2023-04-15T06:17:29.436Z,151.1667
2023-04-15T06:18:33.316Z,153.4167
2023-04-15T06:19:37.215Z,153.4167
2023-04-15T06:20:41.102Z,152.8333
2023-04-15T06:21:45.016Z,153.6667
2023-04-15T06:22:48.891Z,154.1667
2023-04-15T06:23:53.023Z,153.8333
2023-04-15T06:24:56.899Z,155.7500
2023-04-15T06:26:01.116Z,154.6667
2023-04-15T06:27:05.031Z,150.9167
2023-04-15T06:28:08.917Z,153.0833
2023-04-15T06:29:12.822Z,152.1667
2023-04-15T06:30:16.703Z,156.7500
2023-04-15T06:31:17.129Z,157.5455
2023-04-15T06:32:21.050Z,159.0000
2023-04-15T06:33:24.937Z,158.3333
2023-04-15T06:34:28.807Z,156.0833
2023-04-15T06:35:32.719Z,153.3333
2023-04-15T06:36:36.605Z,156.3333
2023-04-15T06:37:40.521Z,155.8333
2023-04-15T06:38:44.393Z,156.4167
2023-04-15T06:39:48.319Z,156.5833
2023-04-15T06:40:52.401Z,156.0000
2023-04-15T06:41:56.302Z,156.5000
2023-04-15T06:43:00.179Z,154.5833
2023-04-15T06:44:04.301Z,154.6667
2023-04-15T06:45:08.205Z,154.5000
2023-04-15T06:46:12.118Z,153.0000
2023-04-15T06:47:16.071Z,157.6667
2023-04-15T06:48:19.962Z,158.5833
2023-04-15T06:49:23.833Z,158.0833
2023-04-15T06:50:27.750Z,158.6667
2023-04-15T06:51:31.628Z,160.9167
2023-04-15T06:52:35.531Z,159.1667
2023-04-15T06:53:39.412Z,158.2500
2023-04-15T06:54:43.292Z,159.3333
2023-04-15T06:55:47.173Z,158.0833
2023-04-15T06:56:51.078Z,159.2500
2023-04-15T06:57:54.988Z,160.8333
2023-04-15T06:58:58.900Z,161.2500
2023-04-15T07:00:02.750Z,162.5833
2023-04-15T07:01:06.725Z,159.3333
2023-04-15T07:02:10.670Z,159.9167
2023-04-15T07:03:14.642Z,159.3333
2023-04-15T07:04:18.588Z,157.0833
2023-04-15T07:05:22.456Z,158.4167
2023-04-15T07:06:26.340Z,160.4167
2023-04-15T07:07:30.245Z,159.8333
2023-04-15T07:08:34.165Z,161.8333
2023-04-15T07:09:38.082Z,163.0833
2023-04-15T07:10:42.210Z,162.5833
2023-04-15T07:11:46.123Z,163.8333
2023-04-15T07:12:50.016Z,163.1667
2023-04-15T07:13:53.921Z,159.7500
2023-04-15T07:14:57.805Z,164.1667
2023-04-15T07:16:01.919Z,162.5000
2023-04-15T07:17:05.861Z,162.1667
2023-04-15T07:18:10.029Z,162.7500
2023-04-15T07:19:13.906Z,165.3333
2023-04-15T07:20:17.809Z,163.9167
2023-04-15T07:21:21.721Z,161.7500
2023-04-15T07:22:25.600Z,162.3333
2023-04-15T07:23:29.516Z,161.3333
2023-04-15T07:24:33.376Z,162.5000
2023-04-15T07:25:37.490Z,163.4167
2023-04-15T07:26:41.377Z,164.0000
2023-04-15T07:27:45.277Z,166.3333
2023-04-15T07:28:49.502Z,165.7500
2023-04-15T07:29:53.388Z,169.5833
2023-04-15T07:30:57.313Z,165.6667
2023-04-15T07:32:01.202Z,166.0833
2023-04-15T07:33:05.426Z,165.4167
2023-04-15T07:34:09.294Z,166.3333
2023-04-15T07:35:13.172Z,165.2500
2023-04-15T07:36:17.070Z,163.7500
2023-04-15T07:37:20.959Z,161.7500
2023-04-15T07:38:24.853Z,162.5000
2023-04-15T07:39:28.816Z,162.3333
2023-04-15T07:40:32.676Z,164.6667
2023-04-15T07:41:36.616Z,168.4167
2023-04-15T07:42:41.523Z,169.9167
2023-04-15T07:43:45.654Z,167.6667
2023-04-15T07:44:49.525Z,168.0833
2023-04-15T07:45:53.436Z,169.3333
2023-04-15T07:46:57.293Z,173.1667
2023-04-15T07:48:01.470Z,175.3333
2023-04-15T07:49:05.343Z,176.0000
2023-04-15T07:50:09.230Z,177.9167
2023-04-15T07:51:13.175Z,179.0000
2023-04-15T07:52:17.075Z,179.5833
2023-04-15T07:53:20.973Z,179.0000
2023-04-15T07:54:24.869Z,177.0833
2023-04-15T07:55:28.761Z,178.8333
2023-04-15T07:56:32.675Z,178.2500
2023-04-15T07:57:36.542Z,177.8333
2023-04-15T07:58:40.465Z,181.9167
2023-04-15T07:59:44.324Z,180.0833
2023-04-15T08:00:48.482Z,181.9167
2023-04-15T08:01:52.405Z,177.7500
2023-04-15T08:02:56.675Z,180.0833
2023-04-15T08:04:00.783Z,177.2500
2023-04-15T08:05:04.795Z,179.0000
2023-04-15T08:06:08.720Z,183.5000
2023-04-15T08:07:12.610Z,184.9167
2023-04-15T08:08:16.524Z,183.8333
2023-04-15T08:09:20.412Z,183.9167
2023-04-15T08:10:24.424Z,182.6667
2023-04-15T08:11:28.304Z,184.2500
2023-04-15T08:12:32.236Z,184.7500
2023-04-15T08:13:36.124Z,187.5000
2023-04-15T08:14:40.030Z,187.0833
2023-04-15T08:15:43.939Z,188.0000
2023-04-15T08:16:47.833Z,186.4167
2023-04-15T08:17:51.743Z,188.3333
2023-04-15T08:18:55.634Z,190.3333
2023-04-15T08:19:59.516Z,192.3333
2023-04-15T08:21:03.418Z,191.9167
2023-04-15T08:22:10.934Z,194.0000
2023-04-15T08:23:11.794Z,192.8182
2023-04-15T08:24:15.701Z,195.8333
2023-04-15T08:25:19.856Z,197.7500
2023-04-15T08:26:23.733Z,197.5000
2023-04-15T08:27:27.628Z,195.5833
2023-04-15T08:28:31.725Z,197.1667
2023-04-15T08:29:35.612Z,196.0833
2023-04-15T08:30:39.520Z,196.9167
2023-04-15T08:31:43.422Z,195.9167
2023-04-15T08:32:47.590Z,197.5000
2023-04-15T08:33:51.581Z,197.9167
2023-04-15T08:34:55.497Z,196.9167
2023-04-15T08:35:59.381Z,196.1667
2023-04-15T08:37:03.293Z,200.0833
2023-04-15T08:38:07.199Z,198.4167
2023-04-15T08:39:11.114Z,200.3333
2023-04-15T08:40:15.211Z,199.8333
2023-04-15T08:41:19.094Z,201.1667
2023-04-15T08:42:22.980Z,200.7500
2023-04-15T08:43:27.178Z,202.3333
2023-04-15T08:44:31.061Z,202.1667
2023-04-15T08:45:34.964Z,199.7500
2023-04-15T08:46:38.866Z,201.6667
2023-04-15T08:47:42.760Z,203.5833
2023-04-15T08:48:46.643Z,202.5000
2023-04-15T08:49:50.528Z,202.0833
2023-04-15T08:50:54.404Z,201.7500
2023-04-15T08:51:58.310Z,202.5833
2023-04-15T08:53:02.232Z,202.3333
2023-04-15T08:54:06.159Z,202.2500
2023-04-15T08:55:10.657Z,201.1667
2023-04-15T08:56:14.550Z,197.6667
2023-04-15T08:57:18.440Z,197.0833
2023-04-15T08:58:22.573Z,195.7500
2023-04-15T08:59:26.482Z,195.2500
2023-04-15T09:00:30.373Z,194.9167
2023-04-15T09:01:34.376Z,197.5833
2023-04-15T09:02:38.344Z,199.1667
2023-04-15T09:03:42.447Z,196.7500
2023-04-15T09:04:46.369Z,199.1667
2023-04-15T09:05:52.705Z,201.5000
2023-04-15T09:06:51.791Z,200.0000
2023-04-15T09:07:55.715Z,200.5000
2023-04-15T09:08:59.629Z,203.9167
2023-04-15T09:10:03.784Z,204.0833
2023-04-15T09:11:07.701Z,202.0833
2023-04-15T09:12:11.625Z,204.3333
2023-04-15T09:13:15.738Z,202.5833
2023-04-15T09:14:19.648Z,198.7500
2023-04-15T09:15:23.552Z,195.1667
2023-04-15T09:16:27.501Z,193.0000
2023-04-15T09:17:31.446Z,195.3333
2023-04-15T09:18:35.341Z,196.0000
2023-04-15T09:19:39.280Z,193.1667
2023-04-15T09:20:43.144Z,194.5000
2023-04-15T09:21:47.049Z,194.5833
2023-04-15T09:22:50.945Z,197.1667
2023-04-15T09:23:54.853Z,198.6667
2023-04-15T09:24:58.858Z,200.6667
2023-04-15T09:26:02.748Z,199.3333
2023-04-15T09:27:06.631Z,203.3333
2023-04-15T09:28:10.557Z,202.2500
2023-04-15T09:29:14.398Z,201.5833
2023-04-15T09:30:18.302Z,203.4167
2023-04-15T09:31:22.244Z,200.0833
2023-04-15T09:32:26.562Z,200.4167
2023-04-15T09:33:30.447Z,202.0000
2023-04-15T09:34:34.351Z,202.7500
2023-04-15T09:35:38.271Z,200.9167
2023-04-15T09:36:42.154Z,201.0000
2023-04-15T09:37:46.057Z,204.2500
2023-04-15T09:38:49.943Z,200.2500
2023-04-15T09:39:53.854Z,202.8333
2023-04-15T09:40:57.751Z,202.0000
2023-04-15T09:42:01.725Z,203.5000
2023-04-15T09:43:05.852Z,200.5000
2023-04-15T09:44:09.736Z,200.1667
2023-04-15T09:45:13.860Z,201.3333
2023-04-15T09:46:17.780Z,202.6667
2023-04-15T09:47:21.709Z,203.6667
2023-04-15T09:48:25.571Z,204.5833
2023-04-15T09:49:29.522Z,205.4167
2023-04-15T09:50:33.419Z,204.9167
2023-04-15T09:51:37.323Z,204.8333
2023-04-15T09:52:41.243Z,204.4167
2023-04-15T09:53:45.137Z,203.2500
2023-04-15T09:54:49.200Z,202.0000
2023-04-15T09:55:53.114Z,207.1667
2023-04-15T09:56:57.017Z,204.2500
2023-04-15T09:58:00.913Z,207.6667
2023-04-15T09:59:04.820Z,208.0833
2023-04-15T10:00:08.721Z,204.0000
2023-04-15T10:01:12.613Z,201.5000
2023-04-15T10:02:16.626Z,201.8333
2023-04-15T10:03:20.763Z,198.5833
2023-04-15T10:04:25.021Z,199.1667
2023-04-15T10:05:29.831Z,204.5833
2023-04-15T10:06:34.126Z,206.0000
2023-04-15T10:07:38.040Z,203.6667
2023-04-15T10:08:41.952Z,202.8333
2023-04-15T10:09:46.034Z,202.9167
2023-04-15T10:10:49.948Z,200.5833
2023-04-15T10:11:54.112Z,203.5000
2023-04-15T10:12:58.018Z,202.1667
2023-04-15T10:14:02.344Z,202.6667
2023-04-15T10:15:06.366Z,202.5833
2023-04-15T10:16:10.331Z,203.7500
2023-04-15T10:17:14.254Z,204.7500
2023-04-15T10:18:18.152Z,204.2500
2023-04-15T10:19:22.295Z,206.7500
2023-04-15T10:20:26.209Z,204.7500
2023-04-15T10:21:30.086Z,205.6667
2023-04-15T10:22:33.991Z,207.6667
2023-04-15T10:23:37.887Z,206.5833
2023-04-15T10:24:41.787Z,205.8333
2023-04-15T10:25:45.684Z,205.1667
2023-04-15T10:26:49.618Z,208.5833
2023-04-15T10:27:53.480Z,208.5000
2023-04-15T10:28:58.414Z,209.0833
2023-04-15T10:29:58.126Z,210.6364
2023-04-15T10:31:02.048Z,208.3333
2023-04-15T10:32:05.945Z,209.3333
2023-04-15T10:33:09.826Z,210.3333
2023-04-15T10:34:14.015Z,210.8333
2023-04-15T10:35:17.912Z,213.5000
2023-04-15T10:36:21.796Z,210.0833
2023-04-15T10:37:25.668Z,208.5000
2023-04-15T10:38:29.579Z,209.0833
2023-04-15T10:39:33.464Z,208.6667
2023-04-15T10:40:37.354Z,208.5833
2023-04-15T10:41:41.363Z,208.0000
2023-04-15T10:42:45.270Z,208.1667
2023-04-15T10:43:49.160Z,209.7500
2023-04-15T10:44:53.069Z,208.5833
2023-04-15T10:45:56.954Z,211.5000
2023-04-15T10:47:00.954Z,211.4167
2023-04-15T10:48:04.865Z,213.5833
2023-04-15T10:49:08.750Z,214.5000
2023-04-15T10:50:12.909Z,210.5000
2023-04-15T10:51:16.809Z,212.4167
2023-04-15T10:52:20.710Z,212.0000
2023-04-15T10:53:24.598Z,211.1667
2023-04-15T10:54:28.494Z,212.6667
2023-04-15T10:55:32.514Z,212.3333
2023-04-15T10:56:36.676Z,215.5000
2023-04-15T10:57:40.526Z,218.4167
2023-04-15T10:58:44.457Z,218.5000
2023-04-15T10:59:48.564Z,218.1667
2023-04-15T11:00:52.452Z,221.3333
2023-04-15T11:01:56.738Z,219.2500
2023-04-15T11:03:00.971Z,218.6667
2023-04-15T11:04:05.163Z,218.6667
2023-04-15T11:05:09.218Z,220.4167
2023-04-15T11:06:13.112Z,221.9167
2023-04-15T11:07:17.002Z,220.4167
2023-04-15T11:08:20.914Z,221.9167
2023-04-15T11:09:24.765Z,219.3333
2023-04-15T11:10:28.640Z,220.2500
2023-04-15T11:11:32.767Z,220.6667
2023-04-15T11:12:36.696Z,219.9167
2023-04-15T11:13:40.560Z,219.8333
2023-04-15T11:14:44.684Z,221.3333
2023-04-15T11:15:48.561Z,219.6667
2023-04-15T11:16:52.490Z,218.0833
2023-04-15T11:17:56.428Z,218.3333
2023-04-15T11:19:00.376Z,221.1667
2023-04-15T11:20:04.507Z,222.4167
2023-04-15T11:21:08.395Z,229.7500
2023-04-15T11:22:12.286Z,229.6667
2023-04-15T11:23:16.221Z,224.6667
2023-04-15T11:24:20.095Z,222.4167
2023-04-15T11:25:24.228Z,222.5000
2023-04-15T11:26:28.368Z,221.7500
2023-04-15T11:27:32.236Z,219.1667
2023-04-15T11:28:36.806Z,220.5000
2023-04-15T11:29:36.294Z,222.6364
2023-04-15T11:30:40.236Z,222.5000
2023-04-15T11:31:44.137Z,224.3333
2023-04-15T11:32:48.051Z,225.3333
2023-04-15T11:33:51.958Z,225.5833
2023-04-15T11:34:55.845Z,228.3333
2023-04-15T11:35:59.742Z,225.3333
2023-04-15T11:37:03.629Z,227.9167
2023-04-15T11:38:07.523Z,227.8333
2023-04-15T11:39:11.456Z,224.0000
2023-04-15T11:40:15.391Z,225.0833
2023-04-15T11:41:19.237Z,226.1667
2023-04-15T11:42:23.437Z,228.1667
2023-04-15T11:43:27.329Z,227.0833
2023-04-15T11:44:31.468Z,227.1667
2023-04-15T11:45:35.390Z,227.8333
2023-04-15T11:46:39.252Z,227.3333
2023-04-15T11:47:43.192Z,230.5000
2023-04-15T11:48:47.106Z,230.0833
2023-04-15T11:49:50.993Z,232.6667
2023-04-15T11:50:54.904Z,236.9167
2023-04-15T11:51:58.798Z,233.6667
2023-04-15T11:53:02.707Z,232.5000
2023-04-15T11:54:06.720Z,233.5000
2023-04-15T11:55:10.742Z,231.5833
2023-04-15T11:56:14.622Z,229.6667
2023-04-15T11:57:18.756Z,230.9167
2023-04-15T11:58:22.662Z,233.5833
2023-04-15T11:59:38.948Z,230.1667
2023-04-15T12:00:31.255Z,228.7273
2023-04-15T12:01:35.217Z,226.6667
2023-04-15T12:02:39.227Z,227.7500
2023-04-15T12:03:43.276Z,228.9167
2023-04-15T12:04:47.556Z,231.5833
2023-04-15T12:05:51.426Z,235.0000
2023-04-15T12:06:55.338Z,232.9167
2023-04-15T12:07:59.230Z,235.9167
2023-04-15T12:09:03.474Z,236.9167
2023-04-15T12:10:07.348Z,239.3333
2023-04-15T12:11:11.226Z,236.5000
2023-04-15T12:12:15.361Z,239.7500
2023-04-15T12:13:19.244Z,241.1667
2023-04-15T12:14:23.149Z,241.8333
2023-04-15T12:15:27.034Z,239.5000
2023-04-15T12:16:30.933Z,239.0833
2023-04-15T12:17:52.153Z,236.5000
2023-04-15T12:18:39.310Z,236.6364
2023-04-15T12:19:43.420Z,237.7500
2023-04-15T12:20:47.299Z,239.4167
2023-04-15T12:21:51.202Z,237.1667
2023-04-15T12:22:55.086Z,235.1667
2023-04-15T12:23:59.305Z,234.2500
2023-04-15T12:25:03.203Z,232.8333
2023-04-15T12:26:07.087Z,232.8333
2023-04-15T12:27:11.302Z,228.7500
2023-04-15T12:28:15.189Z,233.5833
2023-04-15T12:29:19.139Z,235.7500
2023-04-15T12:30:22.983Z,230.5000
2023-04-15T12:31:26.911Z,229.8333